createdAt,value
2019-01-08T00:00:08.277Z,100157.40
2019-01-08T00:01:12.454Z,100163.90
2019-01-08T00:02:14.648Z,100163.38
2019-01-08T00:03:18.828Z,100151.81
2019-01-08T00:04:20.739Z,100154.41
2019-01-08T00:05:22.947Z,100144.41
2019-01-08T00:06:25.150Z,100134.78
2019-01-08T00:07:27.353Z,100132.32
2019-01-08T00:08:29.568Z,100134.91
2019-01-08T00:09:31.812Z,100126.20
2019-01-08T00:10:34.011Z,100131.41
2019-01-08T00:11:36.208Z,100136.22
2019-01-08T00:12:38.415Z,100124.13
2019-01-08T00:13:44.281Z,100111.14
2019-01-08T00:14:46.508Z,100106.84
2019-01-08T00:15:48.708Z,100113.73
2019-01-08T00:16:50.907Z,100102.04
2019-01-08T00:17:53.105Z,100104.64
2019-01-08T00:18:55.290Z,100112.44
2019-01-08T00:19:57.527Z,100104.25
2019-01-08T00:21:05.610Z,100117.25
2019-01-08T00:22:07.787Z,100097.36
2019-01-08T00:24:54.007Z,100089.42
2019-01-08T00:25:56.213Z,100092.94
2019-01-08T00:26:58.410Z,100088.66
2019-01-08T00:28:00.742Z,100078.64
2019-01-08T00:29:02.935Z,100071.23
2019-01-08T00:30:05.139Z,100067.72
2019-01-08T00:31:10.912Z,100075.91
2019-01-08T00:32:13.113Z,100082.55
2019-01-08T00:33:15.314Z,100064.73
2019-01-08T00:34:17.529Z,100079.03
2019-01-08T00:35:19.751Z,100072.14
2019-01-08T00:36:21.949Z,100073.31
2019-01-08T00:37:24.171Z,100059.92
2019-01-08T00:38:26.372Z,100062.00
2019-01-08T00:39:28.566Z,100066.03
2019-01-08T00:40:30.784Z,100066.95
2019-01-08T00:41:32.987Z,100074.22
2019-01-08T00:42:35.173Z,100054.73
2019-01-08T00:43:37.383Z,100059.53
2019-01-08T00:44:39.585Z,100048.62
2019-01-08T00:45:41.822Z,100048.23
2019-01-08T00:46:44.027Z,100052.91
2019-01-08T00:47:46.266Z,100049.00
2019-01-08T00:48:48.456Z,100046.41
2019-01-08T00:49:50.670Z,100044.72
2019-01-08T00:50:52.897Z,100031.20
2019-01-08T00:51:55.103Z,100036.01
2019-01-08T00:52:57.330Z,100039.00
2019-01-08T00:53:59.540Z,100024.17
2019-01-08T00:55:01.734Z,100035.09
2019-01-08T00:56:03.971Z,100026.91
2019-01-08T00:57:06.175Z,100022.10
2019-01-08T00:58:08.381Z,100017.29
2019-01-08T00:59:10.594Z,100015.99
2019-01-08T01:00:13.094Z,100005.07
2019-01-08T01:01:15.337Z,100018.20
2019-01-08T01:02:17.530Z,99996.11
2019-01-08T01:03:19.725Z,100013.78
2019-01-08T01:04:21.914Z,100002.08
2019-01-08T01:05:24.115Z,100000.39
2019-01-08T01:06:26.342Z,99987.79
2019-01-08T01:07:28.525Z,99992.98
2019-01-08T01:08:30.727Z,99990.77
2019-01-08T01:09:32.937Z,99982.98
2019-01-08T01:10:35.132Z,99985.19
2019-01-08T01:11:37.369Z,99975.95
2019-01-08T01:12:39.567Z,99971.67
2019-01-08T01:13:41.748Z,99970.37
2019-01-08T01:14:43.938Z,99967.77
2019-01-08T01:15:46.133Z,99971.28
2019-01-08T01:16:48.353Z,99952.18
2019-01-08T01:17:50.546Z,99954.78
2019-01-08T01:18:52.753Z,99963.48
2019-01-08T01:19:54.936Z,99949.97
2019-01-08T01:20:57.139Z,99955.94
2019-01-08T01:21:59.601Z,99946.07
2019-01-08T01:23:03.413Z,99934.77
2019-01-08T01:24:07.622Z,99938.53
2019-01-08T01:25:09.827Z,99932.94
2019-01-08T01:26:12.026Z,99921.25
2019-01-08T01:27:14.249Z,99910.85
2019-01-08T01:28:16.446Z,99922.55
2019-01-08T01:29:18.643Z,99903.45
2019-01-08T01:30:20.840Z,99906.95
2019-01-08T01:31:23.034Z,99898.77
2019-01-08T01:32:25.286Z,99891.36
2019-01-08T01:33:29.810Z,99879.14
2019-01-08T01:34:32.018Z,99884.86
2019-01-08T01:35:34.202Z,99878.23
2019-01-08T01:36:36.407Z,99880.97
2019-01-08T01:37:38.627Z,99867.97
2019-01-08T01:38:40.822Z,99871.87
2019-01-08T01:39:43.036Z,99870.95
2019-01-08T01:40:45.239Z,99871.34
2019-01-08T01:41:47.430Z,99866.15
2019-01-08T01:42:49.637Z,99864.46
2019-01-08T01:43:51.835Z,99866.15
2019-01-08T01:44:54.025Z,99856.14
2019-01-08T01:45:56.214Z,99853.16
2019-01-08T01:46:58.406Z,99856.66
2019-01-08T01:48:00.626Z,99847.05
2019-01-08T01:49:02.822Z,99837.95
2019-01-08T01:50:05.010Z,99840.94
2019-01-08T01:51:07.440Z,99834.83
2019-01-08T01:52:09.770Z,99844.45
2019-01-08T01:53:11.991Z,99825.34
2019-01-08T01:54:15.559Z,99813.66
2019-01-08T01:55:17.871Z,99823.14
2019-01-08T01:56:20.063Z,99807.55
2019-01-08T01:57:22.252Z,99821.45
2019-01-08T01:58:24.455Z,99804.56
2019-01-08T01:59:26.657Z,99813.66
2019-01-08T02:00:28.853Z,99804.00
2019-01-08T02:01:31.062Z,99808.45
2019-01-08T02:02:33.265Z,99810.14
2019-01-08T02:03:35.500Z,99801.95
2019-01-08T02:04:37.690Z,99799.75
2019-01-08T02:05:39.896Z,99790.66
2019-01-08T02:06:42.098Z,99789.71
2019-01-08T02:07:44.284Z,99777.11
2019-01-08T02:08:49.757Z,99763.20
2019-01-08T02:09:51.956Z,99770.22
2019-01-08T02:10:54.151Z,99765.41
2019-01-08T02:13:34.431Z,99766.71
2019-01-08T02:14:36.527Z,99759.30
2019-01-08T02:15:38.685Z,99753.20
2019-01-08T02:22:37.918Z,99732.41
2019-01-08T02:23:40.115Z,99730.72
2019-01-08T02:24:43.914Z,99720.33
2019-01-08T02:25:46.108Z,99722.41
2019-01-08T02:26:48.319Z,99715.91
2019-01-08T02:27:50.536Z,99719.41
2019-01-08T02:28:52.732Z,99709.80
2019-01-08T02:29:54.934Z,99705.91
2019-01-08T02:30:57.128Z,99700.70
2019-01-08T02:31:59.372Z,99703.83
2019-01-08T02:33:01.572Z,99697.72
2019-01-08T02:34:03.770Z,99698.11
2019-01-08T02:35:05.967Z,99693.43
2019-01-08T02:36:08.161Z,99692.00
2019-01-08T02:44:19.160Z,99676.41
2019-01-08T02:45:21.255Z,99663.03
2019-01-08T02:46:23.277Z,99657.31
2019-01-08T02:47:25.272Z,99659.52
2019-01-08T02:48:27.239Z,99660.30
2019-01-08T02:49:29.242Z,99650.81
2019-01-08T02:50:31.182Z,99655.23
2019-01-08T02:51:33.113Z,99661.21
2019-01-08T02:52:35.040Z,99646.53
2019-01-08T02:53:39.104Z,99638.34
2019-01-08T02:54:41.068Z,99630.42
2019-01-08T02:55:43.149Z,99627.95
2019-01-08T02:56:45.098Z,99623.53
2019-01-08T02:57:47.013Z,99627.04
2019-01-08T02:58:49.071Z,99621.33
2019-01-08T02:59:51.066Z,99620.03
2019-01-08T03:00:53.063Z,99618.73
2019-01-08T03:01:54.984Z,99611.33
2019-01-08T03:02:56.915Z,99609.63
2019-01-08T03:03:58.874Z,99605.73
2019-01-08T03:05:00.794Z,99605.73
2019-01-08T03:06:02.735Z,99591.45
2019-01-08T03:07:04.664Z,99597.94
2019-01-08T03:08:06.598Z,99586.64
2019-01-08T03:09:08.544Z,99589.63
2019-01-08T03:10:10.487Z,99577.55
2019-01-08T03:11:12.423Z,99576.25
2019-01-08T03:12:14.426Z,99576.25
2019-01-08T03:13:19.683Z,99576.13
2019-01-08T03:14:25.382Z,99555.85
2019-01-08T03:15:27.357Z,99551.56
2019-01-08T03:16:29.307Z,99542.34
2019-01-08T03:17:31.311Z,99525.58
2019-01-08T03:18:33.265Z,99538.45
2019-01-08T03:19:35.294Z,99521.55
2019-01-08T03:20:37.307Z,99525.45
2019-01-08T03:21:39.246Z,99533.25
2019-01-08T03:22:41.176Z,99521.68
2019-01-08T03:23:43.113Z,99521.16
2019-01-08T03:24:45.067Z,99512.07
2019-01-08T03:25:47.006Z,99529.87
2019-01-08T03:26:48.928Z,99515.58
2019-01-08T03:27:50.859Z,99513.77
2019-01-08T03:28:52.914Z,99507.66
2019-01-08T03:29:57.906Z,99513.37
2019-01-08T03:30:59.825Z,99495.97
2019-01-08T03:32:05.456Z,99499.47
2019-01-08T03:33:07.393Z,99499.98
2019-01-08T03:34:11.505Z,99494.66
2019-01-08T03:35:13.469Z,99493.36
2019-01-08T03:36:15.417Z,99495.97
2019-01-08T03:37:17.422Z,99482.58
2019-01-08T03:38:19.360Z,99479.47
2019-01-08T03:39:21.297Z,99476.09
2019-01-08T03:40:23.255Z,99478.81
2019-01-08T03:41:25.263Z,99476.09
2019-01-08T03:42:27.255Z,99460.89
2019-01-08T03:43:29.195Z,99453.09
2019-01-08T03:44:31.200Z,99463.09
2019-01-08T03:45:33.137Z,99453.48
2019-01-08T03:46:35.079Z,99457.38
2019-01-08T03:47:37.013Z,99455.69
2019-01-08T03:48:38.957Z,99452.19
2019-01-08T03:49:40.909Z,99451.40
2019-01-08T03:50:42.876Z,99434.52
2019-01-08T03:51:44.819Z,99444.39
2019-01-08T03:52:46.847Z,99428.80
2019-01-08T03:53:48.785Z,99427.89
2019-01-08T03:54:50.755Z,99422.31
2019-01-08T03:55:52.797Z,99413.61
2019-01-08T03:56:54.733Z,99413.61
2019-01-08T03:57:56.674Z,99403.61
2019-01-08T03:58:58.606Z,99408.80
2019-01-08T04:00:00.541Z,99408.02
2019-01-08T04:01:05.161Z,99394.63
2019-01-08T04:02:07.171Z,99396.72
2019-01-08T04:03:09.112Z,99400.61
2019-01-08T04:04:11.065Z,99393.73
2019-01-08T04:05:13.002Z,99379.83
2019-01-08T04:06:14.989Z,99382.43
2019-01-08T04:07:16.933Z,99370.34
2019-01-08T04:08:18.875Z,99364.36
2019-01-08T04:09:21.391Z,99361.25
2019-01-08T04:10:23.399Z,99345.15
2019-01-08T04:11:25.365Z,99361.25
2019-01-08T04:12:27.291Z,99344.24
2019-01-08T04:13:29.240Z,99337.36
2019-01-08T04:14:31.259Z,99355.15
2019-01-08T04:15:33.271Z,99338.26
2019-01-08T04:16:35.249Z,99346.84
2019-01-08T04:17:37.178Z,99343.85
2019-01-08T04:18:39.105Z,99328.27
2019-01-08T04:19:41.030Z,99333.06
2019-01-08T04:20:42.961Z,99323.45
2019-01-08T04:21:44.943Z,99342.16
2019-01-08T04:22:46.888Z,99318.77
2019-01-08T04:23:50.081Z,99324.48
2019-01-08T04:24:52.019Z,99323.19
2019-01-08T04:25:53.959Z,99318.66
2019-01-08T04:26:55.981Z,99324.37
2019-01-08T04:27:57.920Z,99323.97
2019-01-08T04:28:59.852Z,99322.67
2019-01-08T04:30:01.793Z,99323.58
2019-01-08T04:31:03.727Z,99323.97
2019-01-08T04:32:08.539Z,99316.57
2019-01-08T04:33:10.484Z,99309.17
2019-01-08T04:34:12.869Z,99310.98
2019-01-08T04:35:14.841Z,99307.20
2019-01-08T04:36:16.779Z,99311.88
2019-01-08T04:37:18.750Z,99309.69
2019-01-08T04:38:20.675Z,99295.78
2019-01-08T04:39:25.081Z,99296.69
2019-01-08T04:40:27.167Z,99306.69
2019-01-08T04:41:29.122Z,99296.30
2019-01-08T04:42:31.155Z,99287.20
2019-01-08T04:43:35.236Z,99293.30
2019-01-08T04:44:37.173Z,99286.30
2019-01-08T04:45:39.104Z,99287.99
2019-01-08T04:46:41.033Z,99297.08
2019-01-08T04:47:42.995Z,99294.09
2019-01-08T04:48:44.989Z,99294.09
2019-01-08T04:49:46.913Z,99285.91
2019-01-08T04:50:48.862Z,99292.40
2019-01-08T04:51:51.084Z,99297.20
2019-01-08T04:52:53.024Z,99293.70
2019-01-08T04:53:54.966Z,99295.91
2019-01-08T04:54:56.921Z,99291.10
2019-01-08T04:55:59.272Z,99273.81
2019-01-08T04:57:01.197Z,99280.31
2019-01-08T04:58:03.145Z,99272.41
2019-01-08T04:59:05.103Z,99281.50
2019-01-08T05:00:07.176Z,99278.11
2019-01-08T05:01:09.110Z,99272.41
2019-01-08T05:02:11.048Z,99265.52
2019-01-08T05:03:13.019Z,99262.92
2019-01-08T05:04:14.967Z,99263.31
2019-01-08T05:05:16.904Z,99276.69
2019-01-08T05:06:18.856Z,99276.42
2019-01-08T05:07:24.329Z,99268.11
2019-01-08T05:08:26.305Z,99264.22
2019-01-08T05:09:28.234Z,99256.42
2019-01-08T05:10:30.179Z,99263.31
2019-01-08T05:11:32.116Z,99265.12
2019-01-08T05:12:34.135Z,99255.13
2019-01-08T05:13:37.874Z,99249.02
2019-01-08T05:14:39.891Z,99256.81
2019-01-08T05:15:41.824Z,99251.22
2019-01-08T05:16:43.766Z,99245.52
2019-01-08T05:17:45.698Z,99250.31
2019-01-08T05:18:47.653Z,99235.52
2019-01-08T05:19:49.587Z,99244.34
2019-01-08T05:20:51.524Z,99249.53
2019-01-08T05:21:53.456Z,99244.84
2019-01-08T05:22:55.404Z,99239.53
2019-01-08T05:23:57.365Z,99234.84
2019-01-08T05:24:59.318Z,99250.05
2019-01-08T05:26:01.318Z,99234.45
2019-01-08T05:27:03.249Z,99231.86
2019-01-08T05:28:05.202Z,99233.66
2019-01-08T05:29:09.643Z,99231.58
2019-01-08T05:30:11.588Z,99231.97
2019-01-08T05:31:13.526Z,99226.77
2019-01-08T05:32:15.472Z,99224.30
2019-01-08T05:33:17.476Z,99219.72
2019-01-08T05:34:19.460Z,99221.41
2019-01-08T05:35:21.451Z,99220.27
2019-01-08T05:36:23.577Z,99218.58
2019-01-08T05:37:25.510Z,99212.83
2019-01-08T05:38:27.454Z,99219.88
2019-01-08T05:39:29.430Z,99207.64
2019-01-08T05:40:31.372Z,99210.38
2019-01-08T05:41:33.312Z,99208.69
2019-01-08T05:42:35.267Z,99203.89
2019-01-08T05:43:37.219Z,99199.99
2019-01-08T05:44:39.194Z,99201.91
2019-01-08T05:45:41.134Z,99204.52
2019-01-08T05:46:43.150Z,99199.71
2019-01-08T05:47:45.082Z,99202.81
2019-01-08T05:48:47.004Z,99208.02
2019-01-08T05:49:48.999Z,99206.72
2019-01-08T05:50:52.628Z,99196.72
2019-01-08T05:51:54.579Z,99187.23
2019-01-08T05:52:56.505Z,99196.20
2019-01-08T05:53:58.448Z,99172.31
2019-01-08T05:55:00.424Z,99186.60
2019-01-08T05:56:02.374Z,99186.48
2019-01-08T05:57:06.035Z,99196.88
2019-01-08T05:58:10.928Z,99195.58
2019-01-08T05:59:12.957Z,99196.34
2019-01-08T06:00:16.564Z,99188.55
2019-01-08T06:01:18.811Z,99185.55
2019-01-08T06:02:21.043Z,99188.55
2019-01-08T06:03:22.994Z,99177.39
2019-01-08T06:04:28.046Z,99175.16
2019-01-08T06:05:30.006Z,99165.16
2019-01-08T06:06:31.968Z,99179.59
2019-01-08T06:07:35.590Z,99159.56
2019-01-08T06:08:37.543Z,99156.72
2019-01-08T06:09:39.473Z,99158.02
2019-01-08T06:10:41.427Z,99184.63
2019-01-08T06:11:43.368Z,99184.74
2019-01-08T06:12:45.330Z,99169.38
2019-01-08T06:13:47.274Z,99160.00
2019-01-08T06:14:49.263Z,99166.77
2019-01-08T06:15:51.239Z,99158.52
2019-01-08T06:16:53.181Z,99165.38
2019-01-08T06:17:55.111Z,99169.48
2019-01-08T06:18:57.120Z,99175.92
2019-01-08T06:19:59.071Z,99163.81
2019-01-08T06:21:01.003Z,99179.23
2019-01-08T06:22:02.940Z,99173.86
2019-01-08T06:23:04.867Z,99184.13
2019-01-08T06:24:09.814Z,99174.96
2019-01-08T06:25:11.758Z,99186.48
2019-01-08T06:26:16.074Z,99188.45
2019-01-08T06:27:18.021Z,99187.77
2019-01-08T06:28:19.963Z,99190.48
2019-01-08T06:29:21.903Z,99191.09
2019-01-08T06:30:24.935Z,99200.20
2019-01-08T06:31:27.187Z,99192.00
2019-01-08T06:32:29.223Z,99183.29
2019-01-08T06:33:31.235Z,99204.09
2019-01-08T06:34:33.171Z,99195.00
2019-01-08T06:35:35.101Z,99208.40
2019-01-08T06:36:39.817Z,99200.70
2019-01-08T06:37:41.758Z,99207.49
2019-01-08T06:38:43.681Z,99204.89
2019-01-08T06:39:45.611Z,99210.89
2019-01-08T06:40:47.555Z,99209.48
2019-01-08T06:41:49.620Z,99211.57
2019-01-08T06:42:53.403Z,99201.95
2019-01-08T06:43:55.394Z,99216.55
2019-01-08T06:44:59.435Z,99228.25
2019-01-08T06:46:01.371Z,99217.70
2019-01-08T06:47:03.337Z,99218.50
2019-01-08T06:48:05.275Z,99230.20
2019-01-08T06:49:07.212Z,99229.30
2019-01-08T06:50:09.150Z,99226.98
2019-01-08T06:51:11.091Z,99238.28
2019-01-08T06:52:13.065Z,99239.47
2019-01-08T06:53:15.006Z,99237.05
2019-01-08T06:54:18.221Z,99256.16
2019-01-08T06:55:20.147Z,99243.03
2019-01-08T06:56:22.107Z,99238.63
2019-01-08T06:57:24.088Z,99243.72
2019-01-08T06:58:26.026Z,99251.52
2019-01-08T06:59:27.967Z,99260.47
2019-01-08T07:00:33.361Z,99254.77
2019-01-08T07:01:35.809Z,99263.35
2019-01-08T07:02:38.454Z,99263.23
2019-01-08T07:03:43.884Z,99266.63
2019-01-08T07:04:45.912Z,99266.00
2019-01-08T07:05:47.847Z,99266.80
2019-01-08T07:06:49.796Z,99260.18
2019-01-08T07:07:51.755Z,99267.47
2019-01-08T07:08:53.691Z,99267.47
2019-01-08T07:09:55.628Z,99283.47
2019-01-08T07:10:58.145Z,99279.81
2019-01-08T07:12:00.125Z,99275.80
2019-01-08T07:13:02.277Z,99284.50
2019-01-08T07:14:04.245Z,99281.39
2019-01-08T07:15:06.206Z,99288.28
2019-01-08T07:16:08.211Z,99296.48
2019-01-08T07:17:11.928Z,99293.77
2019-01-08T07:18:13.976Z,99291.95
2019-01-08T07:19:15.986Z,99288.84
2019-01-08T07:20:17.912Z,99300.42
2019-01-08T07:21:19.851Z,99298.73
2019-01-08T07:22:22.271Z,99308.22
2019-01-08T07:23:24.604Z,99303.42
2019-01-08T07:24:26.549Z,99313.31
2019-01-08T07:25:28.489Z,99303.30
2019-01-08T07:26:30.421Z,99316.70
2019-01-08T07:27:32.357Z,99316.15
2019-01-08T07:28:34.324Z,99320.05
2019-01-08T07:29:36.316Z,99322.53
2019-01-08T07:30:41.596Z,99324.22
2019-01-08T07:31:42.426Z,99324.98
2019-01-08T07:32:44.349Z,99325.38
2019-01-08T07:33:46.310Z,99327.46
2019-01-08T07:34:48.246Z,99334.36
2019-01-08T07:35:50.197Z,99342.16
2019-01-08T07:36:52.223Z,99338.14
2019-01-08T07:37:54.154Z,99334.23
2019-01-08T07:38:56.123Z,99341.91
2019-01-08T07:39:58.396Z,99336.20
2019-01-08T07:41:00.342Z,99345.30
2019-01-08T07:42:02.268Z,99348.81
2019-01-08T07:43:04.219Z,99347.78
2019-01-08T07:44:06.188Z,99348.69
2019-01-08T07:45:08.139Z,99350.78
2019-01-08T07:46:10.088Z,99357.27
2019-01-08T07:47:12.033Z,99362.83
2019-01-08T07:48:14.042Z,99360.23
2019-01-08T07:49:16.017Z,99355.83
2019-01-08T07:50:20.930Z,99367.91
2019-01-08T07:51:22.878Z,99373.11
2019-01-08T07:52:24.804Z,99376.49
2019-01-08T07:53:26.750Z,99366.49
2019-01-08T07:54:29.095Z,99386.77
2019-01-08T07:55:31.021Z,99377.16
2019-01-08T07:56:32.958Z,99363.66
2019-01-08T07:57:34.914Z,99375.35
2019-01-08T07:58:36.928Z,99377.44
2019-01-08T07:59:38.942Z,99377.44
2019-01-08T08:00:40.878Z,99380.83
2019-01-08T08:01:42.830Z,99380.83
2019-01-08T08:02:44.782Z,99391.22
2019-01-08T08:03:46.724Z,99393.42
2019-01-08T08:04:51.102Z,99379.92
2019-01-08T08:05:53.140Z,99384.20
2019-01-08T08:06:58.182Z,99400.59
2019-01-08T08:08:00.187Z,99402.80
2019-01-08T08:09:02.134Z,99405.78
2019-01-08T08:10:04.118Z,99406.57
2019-01-08T08:11:06.060Z,99411.38
2019-01-08T08:12:08.012Z,99410.47
2019-01-08T08:13:09.968Z,99416.05
2019-01-08T08:14:11.896Z,99418.66
2019-01-08T08:15:13.867Z,99420.34
2019-01-08T08:16:15.799Z,99407.36
2019-01-08T08:17:17.744Z,99430.59
2019-01-08T08:18:19.678Z,99428.50
2019-01-08T08:19:25.033Z,99431.49
2019-01-08T08:20:26.992Z,99435.78
2019-01-08T08:21:28.942Z,99424.48
2019-01-08T08:22:30.958Z,99434.88
2019-01-08T08:23:32.971Z,99436.17
2019-01-08T08:24:34.902Z,99433.06
2019-01-08T08:25:36.950Z,99425.66
2019-01-08T08:26:38.886Z,99431.38
2019-01-08T08:27:40.831Z,99436.96
2019-01-08T08:28:42.789Z,99443.84
2019-01-08T08:29:44.714Z,99448.14
2019-01-08T08:30:46.673Z,99447.75
2019-01-08T08:31:48.617Z,99446.84
2019-01-08T08:32:50.540Z,99452.04
2019-01-08T08:33:52.480Z,99448.53
2019-01-08T08:34:54.417Z,99446.84
2019-01-08T08:35:56.376Z,99457.23
2019-01-08T08:36:58.320Z,99448.14
2019-01-08T08:38:02.730Z,99449.31
2019-01-08T08:39:05.154Z,99459.31
2019-01-08T08:40:07.109Z,99464.64
2019-01-08T08:41:09.132Z,99455.94
2019-01-08T08:42:11.077Z,99456.72
2019-01-08T08:43:13.106Z,99463.61
2019-01-08T08:44:18.438Z,99467.51
2019-01-08T08:45:20.387Z,99471.92
2019-01-08T08:46:22.411Z,99476.72
2019-01-08T08:47:24.350Z,99477.51
2019-01-08T08:48:26.269Z,99474.52
2019-01-08T08:49:28.207Z,99475.42
2019-01-08T08:50:30.140Z,99475.03
2019-01-08T08:51:32.122Z,99471.92
2019-01-08T08:52:34.053Z,99478.41
2019-01-08T08:53:36.003Z,99482.83
2019-01-08T08:54:38.428Z,99485.42
2019-01-08T08:55:40.361Z,99488.02
2019-01-08T08:56:42.399Z,99487.12
2019-01-08T08:57:44.325Z,99495.81
2019-01-08T08:58:46.260Z,99493.22
2019-01-08T08:59:48.195Z,99505.82
2019-01-08T09:00:52.560Z,99511.41
2019-01-08T09:01:53.833Z,99506.61
2019-01-08T09:02:55.842Z,99514.40
2019-01-08T09:03:57.783Z,99519.59
2019-01-08T09:04:59.728Z,99523.10
2019-01-08T09:06:01.663Z,99528.30
2019-01-08T09:07:03.690Z,99524.01
2019-01-08T09:08:05.616Z,99521.80
2019-01-08T09:09:07.575Z,99528.30
2019-01-08T09:10:09.570Z,99512.58
2019-01-08T09:11:11.523Z,99523.88
2019-01-08T09:12:13.477Z,99522.20
2019-01-08T09:13:15.435Z,99527.91
2019-01-08T09:14:17.445Z,99522.71
2019-01-08T09:15:19.467Z,99532.59
2019-01-08T09:16:21.478Z,99536.09
2019-01-08T09:17:23.421Z,99544.28
2019-01-08T09:18:25.439Z,99540.90
2019-01-08T09:19:27.368Z,99532.59
2019-01-08T09:20:29.302Z,99551.69
2019-01-08T09:21:33.034Z,99546.09
2019-01-08T09:22:35.008Z,99543.37
2019-01-08T09:23:36.952Z,99542.47
2019-01-08T09:24:38.953Z,99547.27
2019-01-08T09:25:40.867Z,99554.28
2019-01-08T09:26:42.814Z,99546.88
2019-01-08T09:27:44.789Z,99558.18
2019-01-08T09:28:46.754Z,99551.56
2019-01-08T09:29:48.685Z,99545.97
2019-01-08T09:30:50.618Z,99546.75
2019-01-08T09:31:52.564Z,99552.34
2019-01-08T09:32:54.532Z,99543.77
2019-01-08T09:33:56.459Z,99556.24
2019-01-08T09:34:58.395Z,99549.75
2019-01-08T09:36:00.368Z,99554.55
2019-01-08T09:37:02.365Z,99557.02
2019-01-08T09:38:04.343Z,99557.41
2019-01-08T09:39:06.349Z,99556.63
2019-01-08T09:40:11.068Z,99567.42
2019-01-08T09:41:13.023Z,99567.03
2019-01-08T09:42:15.040Z,99562.09
2019-01-08T09:43:17.005Z,99562.09
2019-01-08T09:44:18.941Z,99567.69
2019-01-08T09:45:20.873Z,99558.72
2019-01-08T09:46:22.825Z,99566.51
2019-01-08T09:47:24.775Z,99564.70
2019-01-08T09:48:30.069Z,99565.99
2019-01-08T09:49:32.018Z,99576.52
2019-01-08T09:50:34.029Z,99581.19
2019-01-08T09:51:36.064Z,99575.61
2019-01-08T09:52:38.071Z,99574.30
2019-01-08T09:53:40.059Z,99577.81
2019-01-08T09:54:41.983Z,99586.00
2019-01-08T09:55:43.913Z,99578.20
2019-01-08T09:56:45.871Z,99581.19
2019-01-08T09:57:47.809Z,99577.17
2019-01-08T09:58:49.783Z,99591.46
2019-01-08T09:59:51.739Z,99581.85
2019-01-08T10:00:53.752Z,99585.36
2019-01-08T10:01:55.683Z,99589.25
2019-01-08T10:02:57.627Z,99588.08
2019-01-08T10:03:59.621Z,99591.98
2019-01-08T10:05:01.641Z,99578.47
2019-01-08T10:06:03.642Z,99594.58
2019-01-08T10:07:05.581Z,99599.38
2019-01-08T10:08:10.562Z,99601.46
2019-01-08T10:09:12.549Z,99594.97
2019-01-08T10:10:14.580Z,99608.47
2019-01-08T10:11:16.575Z,99604.45
2019-01-08T10:12:18.515Z,99605.36
2019-01-08T10:13:20.459Z,99608.34
2019-01-08T10:14:22.401Z,99611.85
2019-01-08T10:15:24.343Z,99622.25
2019-01-08T10:16:26.290Z,99615.36
2019-01-08T10:17:28.236Z,99612.77
2019-01-08T10:18:30.175Z,99611.34
2019-01-08T10:19:32.119Z,99624.33
2019-01-08T10:20:34.046Z,99621.73
2019-01-08T10:21:35.975Z,99621.34
2019-01-08T10:22:37.939Z,99617.44
2019-01-08T10:23:39.892Z,99620.83
2019-01-08T10:24:41.885Z,99623.03
2019-01-08T10:25:43.895Z,99621.34
2019-01-08T10:26:45.914Z,99630.44
2019-01-08T10:27:47.855Z,99626.02
2019-01-08T10:28:49.871Z,99627.70
2019-01-08T10:29:54.066Z,99629.52
2019-01-08T10:30:56.017Z,99633.42
2019-01-08T10:31:57.973Z,99642.13
2019-01-08T10:32:59.899Z,99634.72
2019-01-08T10:34:01.841Z,99640.31
2019-01-08T10:35:04.068Z,99636.41
2019-01-08T10:36:06.065Z,99637.19
2019-01-08T10:37:08.088Z,99642.52
2019-01-08T10:38:10.022Z,99642.91
2019-01-08T10:39:12.030Z,99650.83
2019-01-08T10:40:14.070Z,99650.70
2019-01-08T10:41:16.024Z,99653.69
2019-01-08T10:42:18.035Z,99639.40
2019-01-08T10:43:19.975Z,99646.80
2019-01-08T10:44:21.914Z,99652.00
2019-01-08T10:45:23.894Z,99654.20
2019-01-08T10:46:25.820Z,99660.31
2019-01-08T10:47:27.776Z,99660.70
2019-01-08T10:48:29.751Z,99654.72
2019-01-08T10:49:31.766Z,99654.72
2019-01-08T10:50:34.884Z,99656.94
2019-01-08T10:51:36.828Z,99663.30
2019-01-08T10:52:38.764Z,99656.41
2019-01-08T10:53:40.735Z,99653.42
2019-01-08T10:54:42.754Z,99669.02
2019-01-08T10:55:44.827Z,99654.20
2019-01-08T10:56:50.372Z,99663.82
2019-01-08T10:57:52.305Z,99664.73
2019-01-08T10:58:57.581Z,99658.23
2019-01-08T10:59:59.488Z,99653.03
2019-01-08T11:01:01.444Z,99660.05
2019-01-08T11:02:03.407Z,99655.51
2019-01-08T11:03:05.353Z,99655.12
2019-01-08T11:04:07.277Z,99663.69
2019-01-08T11:05:09.207Z,99660.19
2019-01-08T11:06:11.241Z,99662.27
2019-01-08T11:07:13.185Z,99659.67
2019-01-08T11:08:15.200Z,99657.07
2019-01-08T11:09:17.198Z,99661.09
2019-01-08T11:10:19.346Z,99667.59
2019-01-08T11:11:21.421Z,99662.52
2019-01-08T11:12:23.409Z,99668.50
2019-01-08T11:13:25.364Z,99663.82
2019-01-08T11:14:27.317Z,99660.44
2019-01-08T11:15:29.425Z,99662.52
2019-01-08T11:16:31.405Z,99667.33
2019-01-08T11:17:33.586Z,99660.83
2019-01-08T11:18:35.510Z,99656.03
2019-01-08T11:19:37.519Z,99665.51
2019-01-08T11:20:39.464Z,99662.91
2019-01-08T11:21:41.422Z,99674.87
2019-01-08T11:22:44.046Z,99676.55
2019-01-08T11:23:46.042Z,99670.80
2019-01-08T11:24:47.972Z,99667.86
2019-01-08T11:25:50.186Z,99672.50
2019-01-08T11:26:52.160Z,99678.08
2019-01-08T11:27:54.102Z,99676.00
2019-01-08T11:28:56.049Z,99680.30
2019-01-08T11:29:57.996Z,99684.19
2019-01-08T11:30:59.944Z,99688.73
2019-01-08T11:32:01.910Z,99686.79
2019-01-08T11:33:03.914Z,99689.38
2019-01-08T11:34:08.276Z,99694.58
2019-01-08T11:35:10.207Z,99695.87
2019-01-08T11:36:12.140Z,99694.97
2019-01-08T11:37:14.081Z,99696.44
2019-01-08T11:38:16.021Z,99700.69
2019-01-08T11:39:17.961Z,99704.23
2019-01-08T11:40:19.909Z,99707.57
2019-01-08T11:41:21.922Z,99708.88
2019-01-08T11:42:23.843Z,99707.18
2019-01-08T11:43:25.773Z,99707.05
2019-01-08T11:44:27.692Z,99703.16
2019-01-08T11:45:29.638Z,99711.86
2019-01-08T11:46:31.583Z,99716.14
2019-01-08T11:47:33.504Z,99715.62
2019-01-08T11:48:35.528Z,99709.91
2019-01-08T11:49:37.464Z,99719.52
2019-01-08T11:50:39.385Z,99719.52
2019-01-08T11:51:41.348Z,99722.12
2019-01-08T11:52:43.389Z,99725.11
2019-01-08T11:53:45.383Z,99732.00
2019-01-08T11:54:47.387Z,99719.39
2019-01-08T11:55:49.344Z,99725.38
2019-01-08T11:56:51.384Z,99728.36
2019-01-08T11:57:53.391Z,99720.17
2019-01-08T11:58:55.340Z,99727.06
2019-01-08T11:59:57.294Z,99725.77
2019-01-08T12:00:59.224Z,99727.97
2019-01-08T12:02:01.510Z,99726.67
2019-01-08T12:03:03.468Z,99733.17
2019-01-08T12:04:05.411Z,99728.88
2019-01-08T12:05:07.347Z,99735.77
2019-01-08T12:06:11.602Z,99721.99
2019-01-08T12:07:13.593Z,99728.48
2019-01-08T12:08:15.632Z,99720.69
2019-01-08T12:09:17.567Z,99737.32
2019-01-08T12:10:20.987Z,99731.51
2019-01-08T12:11:23.041Z,99729.27
2019-01-08T12:12:25.099Z,99740.34
2019-01-08T12:13:27.040Z,99735.92
2019-01-08T12:14:28.985Z,99735.14
2019-01-08T12:15:30.909Z,99739.04
2019-01-08T12:16:32.929Z,99735.53
2019-01-08T12:17:34.867Z,99735.76
2019-01-08T12:18:36.801Z,99743.20
2019-01-08T12:19:39.004Z,99734.85
2019-01-08T12:20:42.293Z,99746.55
2019-01-08T12:21:44.327Z,99750.99
2019-01-08T12:22:46.265Z,99747.23
2019-01-08T12:23:48.227Z,99743.84
2019-01-08T12:24:50.253Z,99742.16